Airport View

Enter AWOS ICAO identifier for current METAR.

ex. KFNL

KDLN 290453Z AUTO 21004KT 10SM CLR 06/01 A3038 RMK AO2 SLP281 T00560011

29 Sep 2020 05:00

Frequency: 135.225

Phone: 406-683-5470

Other Area AWOS: KEKS - KSMN - KBZN - KWYS

TAF KBTM 282321Z 2900/2924 32012KT P6SM SKC FM290200 19002KT P6SM SKC FM292000 31010KT P6SM SKC